Time;durP1;ratioP1;P1;durP2;ratioP2;P2;SDS_P1;SDS_P2;PMS_P1;PMS_P2;Temp;Humidity;BMP_temperature;BMP_pressure;BME280_temperature;BME280_humidity;BME280_pressure;Samples;Min_cycle;Max_cycle;Signal;HPM_P1;HPM_P2
2024/04/20 00:00:04;;;;;;;1.73;1.48;;;;;;;10.08;50.93;92660.94;564849;26;917;-69
2024/04/20 00:00:20;;;;;;;1.88;1.38;;;;;;;10.10;50.72;92658.34;565460;26;1069;-70
2024/04/20 00:00:35;;;;;;;1.40;1.23;;;;;;;10.12;50.81;92655.78;568982;26;849;-69
2024/04/20 00:00:51;;;;;;;1.33;1.23;;;;;;;10.12;50.81;92653.03;564669;26;1271;-70
2024/04/20 00:01:06;;;;;;;1.20;1.10;;;;;;;10.14;50.72;92663.50;564947;26;952;-69
2024/04/20 00:01:22;;;;;;;1.35;1.17;;;;;;;10.14;50.58;92655.94;564867;26;791;-69
2024/04/20 00:01:37;;;;;;;2.00;1.30;;;;;;;10.16;51.12;92653.34;564785;26;898;-69
2024/04/20 00:01:53;;;;;;;1.60;1.42;;;;;;;10.16;51.42;92656.13;562915;26;1978;-69
2024/04/20 00:02:08;;;;;;;1.75;1.58;;;;;;;10.17;51.26;92652.06;564216;26;885;-69
2024/04/20 00:02:24;;;;;;;2.10;1.63;;;;;;;10.19;51.08;92652.25;564921;26;782;-69
2024/04/20 00:02:39;;;;;;;2.10;1.90;;;;;;;10.20;50.74;92652.97;564957;26;822;-69
2024/04/20 00:02:55;;;;;;;2.28;1.90;;;;;;;10.21;50.71;92652.41;567584;26;873;-69
2024/04/20 00:03:10;;;;;;;2.30;1.80;;;;;;;10.21;50.28;92652.41;568952;26;928;-69
2024/04/20 00:03:26;;;;;;;1.90;1.70;;;;;;;10.21;50.77;92648.91;568844;26;1631;-69
2024/04/20 00:03:41;;;;;;;1.50;1.40;;;;;;;10.20;50.44;92650.94;568582;26;1164;-69
2024/04/20 00:03:57;;;;;;;1.67;1.58;;;;;;;10.21;50.38;92646.16;566654;26;833;-69
2024/04/20 00:04:12;;;;;;;1.53;1.43;;;;;;;10.18;50.21;92650.75;564834;26;839;-70
2024/04/20 00:04:28;;;;;;;1.42;1.33;;;;;;;10.15;49.52;92645.66;565414;26;1827;-70
2024/04/20 00:04:48;;;;;;;1.77;1.60;;;;;;;10.14;49.79;92657.97;564901;26;885;-70
2024/04/20 00:05:04;;;;;;;1.45;1.35;;;;;;;10.14;49.54;92653.19;564732;26;850;-70
2024/04/20 00:05:20;;;;;;;1.60;1.50;;;;;;;10.16;49.69;92647.09;567517;26;1786;-69
2024/04/20 00:05:38;;;;;;;2.05;1.92;;;;;;;9.94;49.48;92621.91;565902;26;861;-69
2024/04/20 00:05:53;;;;;;;1.83;1.73;;;;;;;10.18;49.82;92647.28;566867;26;915;-70
2024/04/20 00:06:10;;;;;;;1.70;1.60;;;;;;;10.16;49.59;92647.84;568779;26;909;-70
2024/04/20 00:06:28;;;;;;;2.15;1.90;;;;;;;10.19;49.46;92649.47;568723;26;850;-70
2024/04/20 00:06:44;;;;;;;2.25;2.00;;;;;;;10.15;49.50;92642.91;564862;26;873;-70
2024/04/20 00:07:00;;;;;;;2.95;2.30;;;;;;;10.20;49.53;92644.69;564682;26;1346;-69
2024/04/20 00:07:15;;;;;;;3.37;2.50;;;;;;;10.21;49.19;92646.88;565588;26;1854;-69
2024/04/20 00:07:31;;;;;;;3.17;2.63;;;;;;;10.21;49.32;92655.16;568411;26;884;-69
2024/04/20 00:07:47;;;;;;;3.20;2.90;;;;;;;10.19;48.93;92645.97;565604;26;802;-69
2024/04/20 00:08:03;;;;;;;3.15;2.85;;;;;;;10.22;49.41;92653.84;568678;26;916;-69
2024/04/20 00:08:18;;;;;;;3.22;2.92;;;;;;;10.22;49.64;92645.56;565109;26;793;-69
2024/04/20 00:08:34;;;;;;;3.73;3.17;;;;;;;10.22;49.67;92648.34;567147;26;1167;-69
2024/04/20 00:08:50;;;;;;;4.10;3.40;;;;;;;10.22;49.81;92640.06;568638;26;856;-69
2024/04/20 00:09:05;;;;;;;3.70;3.40;;;;;;;10.22;49.55;92644.88;568736;26;838;-69
2024/04/20 00:09:21;;;;;;;3.67;3.20;;;;;;;10.22;49.56;92653.13;565466;26;787;-69
2024/04/20 00:09:36;;;;;;;4.28;3.00;;;;;;;10.22;49.56;92644.88;564929;26;809;-69
2024/04/20 00:09:51;;;;;;;3.47;2.77;;;;;;;10.21;49.46;92641.38;565485;26;1815;-69
2024/04/20 00:10:07;;;;;;;2.58;2.38;;;;;;;10.04;49.45;92624.75;565975;26;1052;-69
2024/04/20 00:10:22;;;;;;;2.03;1.83;;;;;;;10.23;49.72;92647.03;566042;26;802;-69
2024/04/20 00:10:38;;;;;;;2.50;2.10;;;;;;;10.24;49.41;92650.53;564830;26;981;-70
2024/04/20 00:10:53;;;;;;;3.47;2.50;;;;;;;10.25;49.35;92649.22;567576;26;1144;-69
2024/04/20 00:11:09;;;;;;;2.90;2.40;;;;;;;10.26;49.46;92647.94;568706;26;838;-70
2024/04/20 00:11:27;;;;;;;2.70;2.50;;;;;;;10.26;49.48;92645.94;568599;26;810;-69
2024/04/20 00:11:42;;;;;;;2.90;2.70;;;;;;;10.26;49.33;92643.16;567498;26;1072;-69
2024/04/20 00:11:58;;;;;;;2.70;2.50;;;;;;;10.24;49.91;92647.78;565817;26;837;-69
2024/04/20 00:12:15;;;;;;;2.30;2.10;;;;;;;10.23;49.79;92641.53;564954;26;912;-69
2024/04/20 00:12:30;;;;;;;2.45;2.25;;;;;;;10.24;49.52;92640.25;565564;26;1866;-69
2024/04/20 00:12:46;;;;;;;2.80;2.50;;;;;;;10.25;49.56;92644.44;567244;26;845;-69
2024/04/20 00:13:01;;;;;;;2.63;2.42;;;;;;;10.24;49.59;92643.00;566394;26;853;-69
2024/04/20 00:13:17;;;;;;;2.43;2.23;;;;;;;10.23;49.47;92644.28;565112;26;1315;-69
2024/04/20 00:13:32;;;;;;;2.42;2.22;;;;;;;10.23;49.49;92638.03;566632;26;923;-69
2024/04/20 00:13:49;;;;;;;2.27;2.00;;;;;;;10.22;50.11;92644.88;565624;26;794;-69
2024/04/20 00:14:05;;;;;;;2.67;2.08;;;;;;;10.21;50.56;92644.13;564918;26;901;-69
2024/04/20 00:14:20;;;;;;;2.87;2.20;;;;;;;10.19;50.30;92643.97;564820;26;845;-69
2024/04/20 00:14:36;;;;;;;2.90;2.00;;;;;;;10.17;50.31;92645.81;564920;26;858;-69
2024/04/20 00:14:52;;;;;;;2.22;1.80;;;;;;;10.15;50.16;92643.63;566557;26;842;-70
2024/04/20 00:15:07;;;;;;;2.10;1.90;;;;;;;10.12;49.69;92632.97;568601;26;1235;-69
2024/04/20 00:15:22;;;;;;;2.10;1.90;;;;;;;10.10;49.17;92635.56;568799;26;826;-70
2024/04/20 00:15:41;;;;;;;1.80;1.70;;;;;;;10.10;48.61;92638.31;568777;26;968;-69
2024/04/20 00:15:56;;;;;;;2.70;1.60;;;;;;;10.04;48.53;92632.28;568771;26;917;-69
2024/04/20 00:16:12;;;;;;;2.87;1.60;;;;;;;10.09;48.64;92640.31;566703;26;1878;-69
2024/04/20 00:16:27;;;;;;;1.63;1.52;;;;;;;10.10;48.60;92641.06;567770;26;921;-69
2024/04/20 00:16:43;;;;;;;2.73;1.60;;;;;;;10.08;49.03;92633.38;567836;26;1052;-69
2024/04/20 00:16:58;;;;;;;3.38;1.60;;;;;;;10.08;48.81;92635.38;568760;26;933;-69
2024/04/20 00:17:15;;;;;;;2.10;1.67;;;;;;;10.07;48.75;92637.41;566498;26;822;-70
2024/04/20 00:17:30;;;;;;;2.03;1.75;;;;;;;9.98;49.19;92624.28;565052;26;1829;-70
2024/04/20 00:17:46;;;;;;;2.10;1.90;;;;;;;10.05;49.15;92642.03;565475;26;825;-69
2024/04/20 00:18:01;;;;;;;2.47;2.05;;;;;;;10.06;49.22;92641.47;568746;26;917;-69
2024/04/20 00:18:17;;;;;;;2.00;1.60;;;;;;;10.07;49.39;92642.22;565958;26;1064;-69
2024/04/20 00:18:34;;;;;;;1.50;1.33;;;;;;;10.07;49.16;92644.97;565068;26;763;-70
2024/04/20 00:18:50;;;;;;;1.77;1.60;;;;;;;10.08;49.32;92638.88;566277;26;866;-69
2024/04/20 00:19:05;;;;;;;1.70;1.60;;;;;;;10.08;49.54;92638.88;568969;26;833;-69
2024/04/20 00:19:21;;;;;;;1.87;1.70;;;;;;;10.03;49.63;92628.09;568796;26;846;-69
2024/04/20 00:19:36;;;;;;;2.38;1.90;;;;;;;10.07;50.10;92642.91;567057;26;1984;-69
2024/04/20 00:19:52;;;;;;;2.73;1.97;;;;;;;10.06;49.69;92640.75;565974;26;1154;-69
2024/04/20 00:20:08;;;;;;;2.20;1.85;;;;;;;10.06;49.75;92635.97;565042;26;837;-69
2024/04/20 00:20:23;;;;;;;1.97;1.87;;;;;;;10.05;49.81;92636.53;565022;26;829;-69
2024/04/20 00:20:39;;;;;;;1.98;1.80;;;;;;;10.05;50.22;92637.25;566954;26;794;-69
2024/04/20 00:20:54;;;;;;;1.63;1.40;;;;;;;10.05;49.92;92639.28;568870;26;810;-69
2024/04/20 00:21:10;;;;;;;2.35;1.60;;;;;;;10.04;49.96;92643.31;568908;26;889;-69
2024/04/20 00:21:25;;;;;;;2.73;1.83;;;;;;;10.05;50.27;92633.78;568393;26;1191;-69
2024/04/20 00:21:40;;;;;;;1.85;1.63;;;;;;;10.03;50.25;92637.06;567542;26;916;-69
2024/04/20 00:21:56;;;;;;;1.73;1.63;;;;;;;10.03;49.84;92637.06;567949;26;841;-69
2024/04/20 00:22:12;;;;;;;1.80;1.70;;;;;;;10.01;50.19;92633.41;568702;26;1198;-69
2024/04/20 00:22:27;;;;;;;1.80;1.70;;;;;;;10.04;50.13;92630.28;567424;26;1978;-69
2024/04/20 00:22:43;;;;;;;2.10;1.90;;;;;;;10.04;50.28;92641.31;566768;26;880;-69
2024/04/20 00:22:59;;;;;;;2.03;1.80;;;;;;;10.04;50.14;92637.81;567560;26;925;-69
2024/04/20 00:23:14;;;;;;;1.70;1.60;;;;;;;10.03;50.49;92641.88;568161;26;1349;-69
2024/04/20 00:23:30;;;;;;;1.90;1.80;;;;;;;10.02;50.36;92643.91;567760;26;794;-69
2024/04/20 00:23:45;;;;;;;1.90;1.73;;;;;;;10.02;50.34;92638.38;565210;26;810;-69
2024/04/20 00:24:01;;;;;;;1.92;1.63;;;;;;;10.02;50.72;92641.16;568793;26;896;-69
2024/04/20 00:24:18;;;;;;;2.05;1.85;;;;;;;10.02;50.70;92635.63;568893;26;951;-69
2024/04/20 00:24:33;;;;;;;1.80;1.70;;;;;;;10.03;50.84;92636.38;567852;26;885;-70
2024/04/20 00:24:52;;;;;;;1.50;1.40;;;;;;;10.03;51.14;92633.59;567410;26;1173;-70
2024/04/20 00:25:07;;;;;;;1.40;1.30;;;;;;;10.03;50.99;92636.38;568689;26;984;-69
2024/04/20 00:25:23;;;;;;;1.60;1.50;;;;;;;10.01;51.31;92636.91;568788;26;801;-69
2024/04/20 00:25:38;;;;;;;1.57;1.47;;;;;;;10.01;50.63;92633.41;568856;26;866;-69
2024/04/20 00:25:54;;;;;;;1.48;1.38;;;;;;;10.00;50.20;92638.22;568831;26;864;-69
2024/04/20 00:26:09;;;;;;;1.50;1.40;;;;;;;9.99;50.47;92634.00;567417;26;1988;-69
2024/04/20 00:26:25;;;;;;;1.83;1.50;;;;;;;9.94;50.53;92632.91;565078;26;1850;-69
2024/04/20 00:26:40;;;;;;;2.13;1.57;;;;;;;9.91;50.75;92636.09;567030;26;881;-69
2024/04/20 00:26:56;;;;;;;1.70;1.60;;;;;;;9.88;51.24;92637.22;567837;26;782;-69
2024/04/20 00:27:11;;;;;;;1.77;1.67;;;;;;;9.87;51.31;92633.72;567624;26;895;-69
2024/04/20 00:27:27;;;;;;;1.90;1.80;;;;;;;9.87;52.27;92630.94;568764;26;923;-69
2024/04/20 00:27:42;;;;;;;1.90;1.80;;;;;;;9.84;52.25;92632.09;568787;26;900;-69
2024/04/20 00:27:58;;;;;;;1.80;1.70;;;;;;;9.87;52.33;92628.19;567502;26;1283;-69
2024/04/20 00:28:14;;;;;;;1.77;1.67;;;;;;;9.88;51.78;92628.94;567869;26;965;-69
2024/04/20 00:28:29;;;;;;;2.20;1.70;;;;;;;9.90;51.90;92634.63;565111;26;782;-69
2024/04/20 00:28:45;;;;;;;2.58;1.90;;;;;;;9.90;51.77;92629.84;564772;26;1982;-69
2024/04/20 00:29:01;;;;;;;2.13;1.88;;;;;;;9.92;51.29;92630.00;565830;26;918;-69
2024/04/20 00:29:17;;;;;;;2.00;1.80;;;;;;;9.93;51.76;92627.97;567937;26;896;-69
2024/04/20 00:29:32;;;;;;;1.92;1.83;;;;;;;9.96;51.39;92631.63;564943;26;1188;-69
2024/04/20 00:29:48;;;;;;;2.08;1.95;;;;;;;9.94;51.27;92630.16;568691;26;908;-69
2024/04/20 00:30:04;;;;;;;1.90;1.80;;;;;;;9.93;51.25;92631.47;565110;26;889;-70
2024/04/20 00:30:19;;;;;;;2.00;1.80;;;;;;;9.91;51.52;92627.81;564899;26;856;-69
2024/04/20 00:30:35;;;;;;;1.90;1.70;;;;;;;9.82;51.05;92618.16;565173;26;826;-69
2024/04/20 00:31:00;;;;;;;1.77;1.67;;;;;;;9.91;51.16;92622.31;566050;26;841;-69
2024/04/20 00:31:15;;;;;;;2.10;1.88;;;;;;;9.91;51.28;92627.81;565841;26;1222;-69
2024/04/20 00:31:32;;;;;;;1.80;1.70;;;;;;;9.90;50.91;92632.59;566990;26;1302;-69
2024/04/20 00:31:48;;;;;;;1.63;1.52;;;;;;;9.91;50.73;92627.81;565654;26;1350;-69
2024/04/20 00:32:04;;;;;;;2.28;1.70;;;;;;;9.92;50.57;92627.25;564449;26;1208;-69
2024/04/20 00:32:19;;;;;;;2.65;1.70;;;;;;;9.82;50.88;92614.66;565634;26;1355;-70
2024/04/20 00:32:35;;;;;;;2.13;1.73;;;;;;;9.92;51.37;92630.00;566136;26;2088;-69
2024/04/20 00:32:50;;;;;;;2.20;1.77;;;;;;;9.89;52.24;92631.16;565412;26;1251;-69
2024/04/20 00:33:06;;;;;;;2.10;1.73;;;;;;;9.88;52.33;92629.66;565396;26;1392;-69
2024/04/20 00:33:21;;;;;;;1.80;1.70;;;;;;;9.89;52.48;92627.66;567540;26;1354;-69
2024/04/20 00:33:37;;;;;;;1.63;1.53;;;;;;;9.88;52.70;92620.66;565101;26;1252;-69
2024/04/20 00:33:52;;;;;;;1.90;1.70;;;;;;;9.83;52.78;92624.41;568217;26;1240;-69
2024/04/20 00:34:08;;;;;;;1.93;1.70;;;;;;;9.84;52.50;92625.84;568200;26;1256;-70
2024/04/20 00:34:23;;;;;;;1.98;1.60;;;;;;;9.83;52.10;92630.63;565055;26;1220;-70
2024/04/20 00:34:39;;;;;;;1.87;1.67;;;;;;;9.83;51.88;92624.41;564969;26;825;-70
2024/04/20 00:34:55;;;;;;;1.77;1.67;;;;;;;9.81;51.65;92622.19;568625;26;862;-70
2024/04/20 00:35:11;;;;;;;1.70;1.60;;;;;;;9.82;52.07;92628.44;565194;26;897;-70
2024/04/20 00:35:27;;;;;;;1.70;1.60;;;;;;;9.79;51.83;92627.53;564745;26;886;-70
2024/04/20 00:35:42;;;;;;;1.83;1.73;;;;;;;9.77;51.92;92629.38;560856;26;1371;-70
2024/04/20 00:35:57;;;;;;;1.83;1.67;;;;;;;9.75;52.10;92629.22;562127;26;1348;-70
2024/04/20 00:36:13;;;;;;;1.77;1.67;;;;;;;9.74;51.70;92628.50;563294;26;1740;-70
2024/04/20 00:36:28;;;;;;;1.70;1.60;;;;;;;9.76;51.63;92627.94;564773;26;1064;-70
2024/04/20 00:36:44;;;;;;;1.50;1.40;;;;;;;9.78;51.66;92622.59;564732;26;932;-70
2024/04/20 00:36:59;;;;;;;1.70;1.60;;;;;;;9.79;51.43;92621.28;564712;26;901;-72
2024/04/20 00:37:15;;;;;;;1.80;1.70;;;;;;;9.80;51.44;92620.00;564773;26;972;-71
2024/04/20 00:37:30;;;;;;;1.60;1.50;;;;;;;9.81;51.66;92627.00;564991;26;1826;-71
2024/04/20 00:37:45;;;;;;;1.63;1.53;;;;;;;9.81;51.96;92624.22;564889;26;1236;-71
2024/04/20 00:38:01;;;;;;;2.00;1.80;;;;;;;9.80;51.78;92626.25;568765;26;907;-71
2024/04/20 00:38:16;;;;;;;1.88;1.75;;;;;;;9.78;51.71;92628.09;567333;26;950;-71
2024/04/20 00:38:32;;;;;;;1.60;1.50;;;;;;;9.77;51.65;92627.38;564985;26;901;-71
2024/04/20 00:38:47;;;;;;;1.58;1.48;;;;;;;9.77;51.62;92623.88;565443;26;1971;-71
2024/04/20 00:39:03;;;;;;;1.63;1.53;;;;;;;9.77;51.72;92626.63;565519;26;874;-71
2024/04/20 00:39:18;;;;;;;2.00;1.50;;;;;;;9.76;52.08;92623.16;565803;26;1184;-72
2024/04/20 00:39:34;;;;;;;1.87;1.57;;;;;;;9.75;52.40;92629.22;568911;26;790;-71
2024/04/20 00:39:49;;;;;;;1.77;1.67;;;;;;;9.75;52.09;92623.72;568425;26;897;-71
2024/04/20 00:40:05;;;;;;;2.00;1.80;;;;;;;9.75;52.17;92618.19;565199;26;1051;-71
2024/04/20 00:40:21;;;;;;;2.50;1.75;;;;;;;9.77;51.97;92629.38;564868;26;837;-71
2024/04/20 00:40:36;;;;;;;2.40;1.60;;;;;;;9.78;52.08;92626.09;565067;26;830;-71
2024/04/20 00:40:58;;;;;;;1.73;1.63;;;;;;;9.80;52.13;92617.97;566161;26;1037;-71
2024/04/20 00:41:15;;;;;;;2.17;1.98;;;;;;;9.79;52.16;92624.03;565137;26;885;-71
2024/04/20 00:41:30;;;;;;;2.35;2.03;;;;;;;9.81;51.92;92621.47;564930;26;914;-71
2024/04/20 00:41:51;;;;;;;2.20;1.67;;;;;;;9.75;52.53;92620.94;565310;26;822;-71
2024/04/20 00:42:10;;;;;;;1.70;1.60;;;;;;;9.71;52.65;92623.38;565224;26;906;-71
2024/04/20 00:42:25;;;;;;;1.55;1.45;;;;;;;9.64;52.19;92627.66;565066;26;826;-71
2024/04/20 00:42:41;;;;;;;1.67;1.58;;;;;;;9.66;52.03;92627.09;564693;26;2140;-71
2024/04/20 00:42:56;;;;;;;1.70;1.60;;;;;;;9.66;51.90;92622.31;568558;26;1086;-71
2024/04/20 00:43:18;;;;;;;1.60;1.50;;;;;;;9.68;52.10;92621.75;565250;26;916;-72
2024/04/20 00:43:33;;;;;;;1.58;1.48;;;;;;;9.66;52.86;92618.81;565042;26;876;-72
2024/04/20 00:43:49;;;;;;;1.53;1.43;;;;;;;9.67;53.05;92617.53;566185;26;874;-71
2024/04/20 00:44:05;;;;;;;2.22;1.65;;;;;;;9.66;52.76;92619.56;568947;26;925;-72
2024/04/20 00:44:20;;;;;;;2.33;1.60;;;;;;;9.66;52.81;92616.06;568721;26;1414;-71
2024/04/20 00:44:36;;;;;;;1.63;1.52;;;;;;;9.64;52.79;92619.38;568257;26;1091;-71
2024/04/20 00:44:51;;;;;;;2.47;1.60;;;;;;;9.62;52.73;92621.97;566671;26;1123;-71
2024/04/20 00:45:07;;;;;;;3.00;1.60;;;;;;;9.62;52.04;92615.72;568974;26;789;-72
2024/04/20 00:45:23;;;;;;;1.83;1.50;;;;;;;9.62;51.88;92610.22;568744;26;868;-71
2024/04/20 00:45:39;;;;;;;1.80;1.70;;;;;;;9.63;51.88;92623.44;566599;26;1990;-71
2024/04/20 00:45:57;;;;;;;2.43;1.93;;;;;;;9.64;51.95;92615.88;567381;26;1127;-72
2024/04/20 00:46:13;;;;;;;2.08;1.80;;;;;;;9.54;51.88;92601.28;564834;26;841;-70
2024/04/20 00:46:29;;;;;;;2.83;1.83;;;;;;;9.67;51.79;92617.53;561091;26;778;-70
2024/04/20 00:46:45;;;;;;;2.83;2.00;;;;;;;9.69;51.61;92612.91;553990;26;839;-71
2024/04/20 00:47:02;;;;;;;1.90;1.80;;;;;;;9.71;51.69;92613.09;557309;26;886;-70
2024/04/20 00:47:18;;;;;;;1.83;1.73;;;;;;;9.69;51.96;92612.19;557281;26;955;-70
2024/04/20 00:47:34;;;;;;;1.93;1.77;;;;;;;9.68;51.89;92616.25;557110;26;1197;-70
2024/04/20 00:47:50;;;;;;;2.25;1.77;;;;;;;9.66;51.97;92616.06;553561;26;946;-70
2024/04/20 00:48:05;;;;;;;2.23;1.77;;;;;;;9.65;51.81;92618.09;553849;26;902;-70
2024/04/20 00:48:21;;;;;;;1.92;1.70;;;;;;;9.64;51.93;92622.13;556413;26;2096;-70
2024/04/20 00:48:37;;;;;;;2.17;1.80;;;;;;;9.61;52.20;92606.00;558341;26;1287;-70
2024/04/20 00:48:54;;;;;;;2.00;1.80;;;;;;;9.62;52.57;92610.94;559629;26;824;-71
2024/04/20 00:49:10;;;;;;;1.70;1.60;;;;;;;9.64;52.68;92616.63;560945;26;1085;-71
2024/04/20 00:49:25;;;;;;;2.40;1.67;;;;;;;9.64;52.32;92613.13;557536;26;865;-70
2024/04/20 00:49:41;;;;;;;2.40;1.80;;;;;;;9.61;51.98;92617.78;558590;26;851;-70
2024/04/20 00:49:56;;;;;;;2.13;1.93;;;;;;;9.61;51.63;92611.53;563977;26;821;-71
2024/04/20 00:50:12;;;;;;;2.10;1.90;;;;;;;9.52;51.26;92595.59;564752;26;830;-71
2024/04/20 00:50:28;;;;;;;1.85;1.75;;;;;;;9.61;50.76;92609.50;565836;26;908;-70
2024/04/20 00:50:44;;;;;;;2.00;1.80;;;;;;;9.59;51.06;92612.09;568514;26;1302;-70
2024/04/20 00:51:00;;;;;;;2.20;2.00;;;;;;;9.59;50.92;92606.56;564930;26;921;-70
2024/04/20 00:51:16;;;;;;;2.10;1.90;;;;;;;9.58;50.79;92613.38;565061;26;1305;-70
2024/04/20 00:51:31;;;;;;;1.70;1.60;;;;;;;9.56;50.58;92615.97;564875;26;886;-70
2024/04/20 00:51:47;;;;;;;1.80;1.70;;;;;;;9.50;50.45;92604.44;561408;26;1153;-70
2024/04/20 00:52:04;;;;;;;2.15;1.90;;;;;;;9.55;50.33;92611.03;564904;26;917;-70
2024/04/20 00:52:20;;;;;;;2.25;1.83;;;;;;;9.54;50.61;92606.78;564617;26;1188;-70
2024/04/20 00:52:36;;;;;;;1.80;1.70;;;;;;;9.56;50.62;92615.22;560351;26;2079;-70
2024/04/20 00:52:51;;;;;;;2.55;1.70;;;;;;;9.56;50.68;92610.44;557066;26;814;-70
2024/04/20 00:53:12;;;;;;;3.00;1.70;;;;;;;9.60;50.85;92607.28;557463;26;772;-70
2024/04/20 00:53:29;;;;;;;3.00;1.98;;;;;;;9.61;50.80;92611.53;557379;26;996;-70
2024/04/20 00:53:47;;;;;;;2.53;1.90;;;;;;;9.60;51.20;92599.75;560292;26;862;-70
2024/04/20 00:54:03;;;;;;;2.03;1.85;;;;;;;9.64;51.27;92604.88;553764;26;1305;-70
2024/04/20 00:54:18;;;;;;;2.30;2.03;;;;;;;9.64;50.85;92608.34;557272;26;815;-70
2024/04/20 00:54:35;;;;;;;3.43;2.13;;;;;;;9.64;50.56;92610.38;557381;26;826;-70
2024/04/20 00:54:51;;;;;;;2.60;2.03;;;;;;;9.63;50.62;92619.94;560468;26;953;-70
2024/04/20 00:55:06;;;;;;;2.72;2.00;;;;;;;9.48;50.51;92589.75;561232;26;890;-70
2024/04/20 00:55:22;;;;;;;3.13;1.93;;;;;;;9.58;50.55;92607.84;557458;26;822;-70
2024/04/20 00:55:37;;;;;;;2.10;1.80;;;;;;;9.56;50.62;92609.72;556820;26;1097;-70
2024/04/20 00:55:53;;;;;;;1.97;1.87;;;;;;;9.55;50.48;92611.03;558415;26;854;-70
2024/04/20 00:56:08;;;;;;;2.45;2.25;;;;;;;9.55;50.36;92606.22;561216;26;843;-70
2024/04/20 00:56:24;;;;;;;2.57;2.20;;;;;;;9.57;50.41;92597.41;561160;26;954;-70
2024/04/20 00:56:40;;;;;;;2.20;1.95;;;;;;;9.57;50.61;92602.91;562791;26;1983;-70
2024/04/20 00:56:56;;;;;;;2.22;2.03;;;;;;;9.57;51.02;92602.91;564547;26;889;-70
2024/04/20 00:57:11;;;;;;;2.28;2.05;;;;;;;9.57;51.14;92602.91;561481;26;1299;-70
2024/04/20 00:57:27;;;;;;;2.37;2.00;;;;;;;9.59;50.72;92605.84;564128;26;1253;-70
2024/04/20 00:57:43;;;;;;;2.00;1.80;;;;;;;9.60;50.76;92607.28;556762;26;1846;-72
2024/04/20 00:58:01;;;;;;;1.98;1.85;;;;;;;9.62;50.92;92602.69;561032;26;929;-71
2024/04/20 00:58:19;;;;;;;2.20;2.00;;;;;;;9.63;51.34;92606.16;560637;26;1166;-71
2024/04/20 00:58:34;;;;;;;2.22;2.00;;;;;;;9.64;51.37;92604.88;556978;26;1254;-71
2024/04/20 00:58:50;;;;;;;2.03;1.83;;;;;;;9.65;51.51;92607.06;556284;26;1138;-71
2024/04/20 00:59:06;;;;;;;2.13;1.92;;;;;;;9.65;51.51;92607.06;555630;26;1221;-71
2024/04/20 00:59:22;;;;;;;2.10;1.92;;;;;;;9.66;51.65;92599.53;552791;26;1872;-71
2024/04/20 00:59:38;;;;;;;2.17;1.95;;;;;;;9.66;51.80;92605.78;554781;26;1837;-71
2024/04/20 00:59:53;;;;;;;2.35;2.05;;;;;;;9.67;51.93;92595.47;553040;26;1291;-71
2024/04/20 01:00:09;;;;;;;2.17;1.90;;;;;;;9.67;51.68;92595.47;549918;26;1261;-71
2024/04/20 01:00:24;;;;;;;2.17;1.85;;;;;;;9.64;51.50;92600.09;550700;26;1282;-71
2024/04/20 01:00:40;;;;;;;2.23;1.87;;;;;;;9.62;51.52;92599.91;551118;26;1218;-70
2024/04/20 01:00:56;;;;;;;2.33;1.90;;;;;;;9.60;51.44;92597.00;554204;26;1154;-70
2024/04/20 01:01:12;;;;;;;2.22;2.03;;;;;;;9.61;52.01;92600.50;556836;26;1245;-70
2024/04/20 01:01:27;;;;;;;2.30;2.10;;;;;;;9.63;51.93;92601.41;557234;26;890;-70
2024/04/20 01:01:44;;;;;;;2.20;2.00;;;;;;;9.63;51.97;92598.66;558300;26;1000;-70
2024/04/20 01:01:59;;;;;;;2.13;1.92;;;;;;;9.65;51.75;92598.81;557775;26;1190;-70
2024/04/20 01:02:16;;;;;;;2.47;2.17;;;;;;;9.66;51.10;92594.75;557497;26;1050;-70
2024/04/20 01:02:31;;;;;;;2.33;2.13;;;;;;;9.68;51.16;92591.44;556728;26;2093;-70
2024/04/20 01:02:47;;;;;;;3.53;1.92;;;;;;;9.70;51.56;92597.13;556620;26;902;-70
2024/04/20 01:03:03;;;;;;;3.67;1.95;;;;;;;9.68;51.72;92591.44;557801;26;949;-70
2024/04/20 01:03:18;;;;;;;2.63;1.90;;;;;;;9.65;51.38;92589.81;561095;26;747;-70
2024/04/20 01:03:34;;;;;;;3.17;1.90;;;;;;;9.64;50.85;92596.59;560522;26;1095;-70
2024/04/20 01:03:50;;;;;;;2.72;2.00;;;;;;;9.59;51.35;92590.03;558959;26;918;-70
2024/04/20 01:04:05;;;;;;;1.88;1.77;;;;;;;9.56;51.45;92593.91;562198;26;929;-70
2024/04/20 01:04:21;;;;;;;1.73;1.60;;;;;;;9.56;51.66;92593.19;564763;26;818;-70
2024/04/20 01:04:36;;;;;;;2.13;1.77;;;;;;;9.56;51.85;92591.16;564797;26;1071;-70
2024/04/20 01:04:52;;;;;;;2.03;1.80;;;;;;;9.55;52.25;92595.19;566535;26;889;-70
2024/04/20 01:05:08;;;;;;;1.97;1.77;;;;;;;9.54;51.85;92593.75;564691;26;922;-70
2024/04/20 01:05:23;;;;;;;2.05;1.80;;;;;;;9.55;51.70;92594.47;564422;26;1378;-70
2024/04/20 01:05:39;;;;;;;2.05;1.85;;;;;;;9.50;51.89;92595.44;564530;26;1144;-70
2024/04/20 01:05:55;;;;;;;3.30;2.30;;;;;;;9.47;51.73;92599.31;564514;26;802;-70
2024/04/20 01:06:10;;;;;;;3.22;2.30;;;;;;;9.39;51.42;92595.88;560815;26;858;-70
2024/04/20 01:06:26;;;;;;;2.35;1.80;;;;;;;9.37;51.18;92595.72;556290;26;1878;-70
2024/04/20 01:06:41;;;;;;;2.80;1.93;;;;;;;9.36;51.28;92594.97;555262;26;919;-70
2024/04/20 01:06:57;;;;;;;2.20;2.00;;;;;;;9.33;51.25;92590.59;555880;26;1228;-71
2024/04/20 01:07:12;;;;;;;2.00;1.80;;;;;;;9.29;51.65;92593.00;557131;26;961;-70
2024/04/20 01:07:28;;;;;;;2.35;2.03;;;;;;;9.29;51.13;92592.28;557952;26;870;-70
2024/04/20 01:07:43;;;;;;;2.30;2.10;;;;;;;9.27;51.17;92598.34;560926;26;830;-70
2024/04/20 01:07:59;;;;;;;2.17;1.98;;;;;;;9.15;51.60;92576.03;557673;26;886;-70
2024/04/20 01:08:14;;;;;;;2.60;2.20;;;;;;;9.29;51.38;92595.03;561494;26;897;-70
2024/04/20 01:08:30;;;;;;;2.60;2.30;;;;;;;9.25;51.22;92589.19;563761;26;1084;-70
2024/04/20 01:08:46;;;;;;;2.40;2.20;;;;;;;9.05;50.66;92583.41;561022;26;931;-70
2024/04/20 01:09:01;;;;;;;2.43;2.23;;;;;;;9.16;50.35;92596.00;564457;26;821;-70
2024/04/20 01:09:17;;;;;;;2.28;2.08;;;;;;;9.18;50.41;92596.22;560010;26;1869;-70
2024/04/20 01:09:32;;;;;;;2.00;1.87;;;;;;;9.01;50.59;92565.81;558697;26;882;-70
2024/04/20 01:09:49;;;;;;;2.08;1.90;;;;;;;9.23;50.66;92592.47;560733;26;873;-70
2024/04/20 01:10:05;;;;;;;2.40;2.20;;;;;;;9.22;51.40;92585.53;558012;26;1085;-70
2024/04/20 01:10:21;;;;;;;2.40;2.20;;;;;;;9.18;50.63;92595.47;560756;26;775;-70
2024/04/20 01:10:36;;;;;;;2.30;2.10;;;;;;;8.93;50.18;92557.63;560896;26;818;-70
2024/04/20 01:10:52;;;;;;;2.20;2.00;;;;;;;9.17;50.45;92594.72;560827;26;1256;-71
2024/04/20 01:11:07;;;;;;;2.28;2.08;;;;;;;9.00;50.32;92573.38;562022;26;826;-70
2024/04/20 01:11:24;;;;;;;2.40;2.20;;;;;;;9.10;50.06;92596.25;565635;26;932;-70
2024/04/20 01:11:39;;;;;;;2.40;2.20;;;;;;;9.04;50.16;92595.72;568380;26;1192;-71
2024/04/20 01:11:55;;;;;;;2.10;2.00;;;;;;;9.07;50.08;92596.63;567326;26;862;-70
2024/04/20 01:12:10;;;;;;;2.10;2.00;;;;;;;9.03;50.07;92594.25;568642;26;951;-71
2024/04/20 01:12:26;;;;;;;2.30;2.10;;;;;;;9.04;49.96;92598.47;568602;26;853;-70
2024/04/20 01:12:41;;;;;;;2.22;2.00;;;;;;;9.07;49.87;92596.63;565723;26;1607;-70
2024/04/20 01:13:04;;;;;;;2.27;2.07;;;;;;;9.11;50.13;92594.97;567860;26;973;-70
2024/04/20 01:13:26;;;;;;;2.92;2.38;;;;;;;9.14;50.83;92595.84;567988;26;1230;-70
2024/04/20 01:14:02;;;;;;;2.47;2.20;;;;;;;9.00;50.16;92569.88;566073;26;2093;-70
2024/04/20 01:14:18;;;;;;;2.13;1.92;;;;;;;9.15;50.08;92594.56;564690;26;1056;-70
2024/04/20 01:14:33;;;;;;;2.10;1.90;;;;;;;9.16;50.09;92588.47;564805;26;821;-70
2024/04/20 01:14:49;;;;;;;2.97;2.10;;;;;;;9.18;50.09;92598.22;565795;26;878;-70
2024/04/20 01:15:05;;;;;;;2.67;2.00;;;;;;;9.16;50.08;92605.00;568439;26;1354;-70
2024/04/20 01:15:20;;;;;;;2.35;1.95;;;;;;;9.07;50.05;92597.34;568531;26;881;-70
2024/04/20 01:15:36;;;;;;;2.57;2.00;;;;;;;9.08;49.86;92601.56;568648;26;861;-70
2024/04/20 01:15:51;;;;;;;2.15;2.00;;;;;;;9.04;50.02;92598.47;566785;26;1171;-70
2024/04/20 01:16:07;;;;;;;2.20;2.00;;;;;;;9.04;50.10;92598.47;568572;26;933;-70
2024/04/20 01:16:26;;;;;;;2.17;1.98;;;;;;;9.05;50.40;92596.47;567626;26;1878;-70
2024/04/20 01:16:41;;;;;;;2.20;2.00;;;;;;;9.06;50.66;92595.91;565790;26;1104;-70
2024/04/20 01:16:56;;;;;;;2.30;2.10;;;;;;;8.99;50.89;92598.69;566671;26;826;-70
2024/04/20 01:17:12;;;;;;;2.15;1.95;;;;;;;8.94;50.57;92599.66;564864;26;837;-70
2024/04/20 01:17:28;;;;;;;2.47;2.00;;;;;;;8.91;50.10;92592.50;564736;26;1167;-70
2024/04/20 01:17:43;;;;;;;2.53;2.20;;;;;;;8.89;50.35;92601.31;564642;26;1860;-70
2024/04/20 01:17:59;;;;;;;2.30;2.10;;;;;;;8.90;50.35;92597.25;568260;26;796;-70
2024/04/20 01:18:14;;;;;;;2.58;2.33;;;;;;;8.89;50.74;92593.06;568508;26;1131;-71